Time;durP1;ratioP1;P1;durP2;ratioP2;P2;SDS_P1;SDS_P2;PMS_P1;PMS_P2;Temp;Humidity;BMP_temperature;BMP_pressure;BME280_temperature;BME280_humidity;BME280_pressure;Samples;Min_cycle;Max_cycle;Signal;HPM_P1;HPM_P2
2021/11/07 00:01:36;;;;;;;35.28;18.42;;;;;;;;;;5073717;28;20249;-84
2021/11/07 00:06:50;;;;;;;17.60;10.80;;;;;;;;;;5073897;28;20024;-84
2021/11/07 00:09:25;;;;;;;15.68;9.93;;;;;;;;;;5055294;28;20266;-84
2021/11/07 00:12:01;;;;;;;23.25;11.95;;;;;;;;;;5055162;28;20039;-85
2021/11/07 00:14:27;;;;;;;17.80;10.48;;;;;;;;;;5073647;28;20124;-85
2021/11/07 00:16:53;;;;;;;15.20;9.75;;;;;;;;;;5058855;28;20055;-85
2021/11/07 00:19:29;;;;;;;15.30;8.63;;;;;;;;;;5054463;28;20062;-84
2021/11/07 00:24:31;;;;;;;20.83;11.23;;;;;;;;;;5072399;28;20062;-85
2021/11/07 00:27:21;;;;;;;28.38;12.98;;;;;;;;;;5072339;28;20070;-85
2021/11/07 00:30:02;;;;;;;35.58;12.63;;;;;;;;;;5072452;28;20031;-85
2021/11/07 00:32:53;;;;;;;60.13;18.67;;;;;;;;;;5053759;28;20043;-85
2021/11/07 00:38:05;;;;;;;31.75;11.25;;;;;;;;;;5072410;28;20134;-85
2021/11/07 00:40:39;;;;;;;27.02;9.70;;;;;;;;;;5054895;28;20056;-85
2021/11/07 00:43:10;;;;;;;35.40;11.48;;;;;;;;;;5074098;28;20499;-84
2021/11/07 00:45:59;;;;;;;38.67;8.70;;;;;;;;;;5053594;28;20119;-84
2021/11/07 00:48:25;;;;;;;41.42;9.05;;;;;;;;;;5071287;28;20039;-84
2021/11/07 00:53:40;;;;;;;54.38;9.43;;;;;;;;;;5073313;28;20084;-85
2021/11/07 01:02:04;;;;;;;56.40;11.32;;;;;;;;;;5010648;28;20034;-85
2021/11/07 01:04:30;;;;;;;41.47;8.52;;;;;;;;;;5041599;28;20040;-85
2021/11/07 01:06:55;;;;;;;40.80;7.53;;;;;;;;;;5070730;28;20020;-85
2021/11/07 01:09:20;;;;;;;40.00;8.05;;;;;;;;;;5071398;28;20032;-85
2021/11/07 01:11:46;;;;;;;45.33;9.27;;;;;;;;;;5071526;28;20024;-85
2021/11/07 01:14:12;;;;;;;54.03;9.02;;;;;;;;;;5054083;28;20265;-85
2021/11/07 01:16:37;;;;;;;59.47;9.48;;;;;;;;;;5054346;28;20024;-85
2021/11/07 01:19:03;;;;;;;34.70;7.00;;;;;;;;;;5073070;28;20020;-85
2021/11/07 01:21:33;;;;;;;47.95;8.82;;;;;;;;;;5072506;28;20587;-85
2021/11/07 01:24:08;;;;;;;45.72;7.72;;;;;;;;;;5073018;28;20034;-85
2021/11/07 01:26:42;;;;;;;56.05;9.07;;;;;;;;;;5073088;28;20103;-85
2021/11/07 01:29:16;;;;;;;45.58;9.30;;;;;;;;;;5054586;28;20043;-85
2021/11/07 01:31:43;;;;;;;63.10;9.70;;;;;;;;;;5071695;28;20446;-84
2021/11/07 01:34:11;;;;;;;130.13;10.70;;;;;;;;;;5053696;28;20043;-84
2021/11/07 01:39:10;;;;;;;62.30;9.68;;;;;;;;;;5053682;28;20029;-85
2021/11/07 01:41:45;;;;;;;40.65;7.72;;;;;;;;;;5052537;28;20017;-85
2021/11/07 01:44:11;;;;;;;47.03;8.07;;;;;;;;;;5053118;28;20029;-85
2021/11/07 01:46:41;;;;;;;66.97;9.68;;;;;;;;;;5053330;28;20105;-84
2021/11/07 01:49:11;;;;;;;64.07;9.38;;;;;;;;;;5051802;28;20492;-85
2021/11/07 01:51:45;;;;;;;58.03;8.98;;;;;;;;;;5053500;28;20487;-85
2021/11/07 01:54:22;;;;;;;49.95;7.53;;;;;;;;;;5050443;28;20128;-84
2021/11/07 01:56:48;;;;;;;74.50;10.30;;;;;;;;;;5050042;28;20033;-85
2021/11/07 01:59:13;;;;;;;51.28;9.05;;;;;;;;;;5050773;28;20870;-85
2021/11/07 02:01:38;;;;;;;53.20;7.93;;;;;;;;;;5050449;28;20021;-85
2021/11/07 02:04:04;;;;;;;65.15;10.15;;;;;;;;;;5050825;28;20124;-85
2021/11/07 02:06:29;;;;;;;69.50;9.75;;;;;;;;;;5052113;28;20048;-85
2021/11/07 02:08:54;;;;;;;57.25;9.95;;;;;;;;;;5050754;28;20021;-85
2021/11/07 02:11:19;;;;;;;76.10;12.07;;;;;;;;;;5054751;28;20022;-85
2021/11/07 02:13:45;;;;;;;65.93;9.52;;;;;;;;;;5055957;28;20040;-85
2021/11/07 02:16:11;;;;;;;50.72;8.25;;;;;;;;;;5054873;28;20800;-85
2021/11/07 02:18:37;;;;;;;58.20;7.47;;;;;;;;;;5055737;28;20056;-85
2021/11/07 02:21:04;;;;;;;57.10;7.55;;;;;;;;;;5054086;28;20040;-85
2021/11/07 02:23:30;;;;;;;55.78;8.15;;;;;;;;;;5054637;28;20017;-85
2021/11/07 02:25:58;;;;;;;54.88;9.25;;;;;;;;;;5055096;28;20163;-85
2021/11/07 02:28:28;;;;;;;45.47;8.77;;;;;;;;;;5053329;28;20032;-85
2021/11/07 02:30:53;;;;;;;57.13;8.10;;;;;;;;;;5055317;28;20025;-85
2021/11/07 02:33:19;;;;;;;53.78;8.80;;;;;;;;;;5055544;28;20067;-85
2021/11/07 02:35:44;;;;;;;57.67;8.77;;;;;;;;;;5053666;28;20484;-85
2021/11/07 02:38:09;;;;;;;59.80;9.20;;;;;;;;;;5076112;28;20024;-85
2021/11/07 02:40:35;;;;;;;60.05;9.57;;;;;;;;;;5075018;28;20020;-85
2021/11/07 02:43:01;;;;;;;63.53;8.43;;;;;;;;;;5056133;28;20020;-85
2021/11/07 02:45:28;;;;;;;57.25;9.35;;;;;;;;;;5056040;28;20020;-85
2021/11/07 02:47:54;;;;;;;65.43;9.95;;;;;;;;;;5074382;28;20024;-85
2021/11/07 02:50:20;;;;;;;79.05;9.25;;;;;;;;;;5074354;28;20024;-85
2021/11/07 02:52:46;;;;;;;68.57;9.52;;;;;;;;;;5074882;28;20036;-85
2021/11/07 02:55:11;;;;;;;76.75;9.95;;;;;;;;;;5074835;28;20024;-85
2021/11/07 02:57:37;;;;;;;62.20;8.68;;;;;;;;;;5075229;28;20052;-85
2021/11/07 03:00:04;;;;;;;60.40;10.32;;;;;;;;;;5075799;28;20021;-85
2021/11/07 03:02:30;;;;;;;66.00;9.60;;;;;;;;;;5075236;28;20020;-85
2021/11/07 03:04:56;;;;;;;62.55;9.40;;;;;;;;;;5055554;28;20020;-85
2021/11/07 03:07:22;;;;;;;68.70;9.73;;;;;;;;;;5073490;28;20414;-85
2021/11/07 03:09:47;;;;;;;79.00;9.85;;;;;;;;;;5074173;28;20029;-85
2021/11/07 03:12:13;;;;;;;77.38;10.30;;;;;;;;;;5074713;28;20041;-85
2021/11/07 03:14:40;;;;;;;67.47;9.65;;;;;;;;;;5075104;28;20021;-85
2021/11/07 03:17:06;;;;;;;79.60;10.57;;;;;;;;;;5056538;28;20507;-85
2021/11/07 03:19:32;;;;;;;104.78;10.93;;;;;;;;;;5057985;28;20024;-85
2021/11/07 03:22:02;;;;;;;78.55;11.45;;;;;;;;;;5058249;28;20028;-85
2021/11/07 03:24:28;;;;;;;74.47;10.18;;;;;;;;;;5076991;28;20032;-85
2021/11/07 03:26:54;;;;;;;63.67;8.07;;;;;;;;;;5063924;28;20020;-85
2021/11/07 03:29:21;;;;;;;67.13;8.23;;;;;;;;;;5075351;28;20013;-85
2021/11/07 03:32:02;;;;;;;54.85;7.18;;;;;;;;;;5057423;28;20107;-85
2021/11/07 03:34:30;;;;;;;66.03;9.52;;;;;;;;;;5075666;28;20048;-85
2021/11/07 03:36:57;;;;;;;51.10;8.13;;;;;;;;;;5058105;28;20050;-85
2021/11/07 03:39:23;;;;;;;53.15;7.43;;;;;;;;;;5058086;28;20070;-85
2021/11/07 03:41:49;;;;;;;38.10;7.25;;;;;;;;;;5058400;28;20047;-85
2021/11/07 03:44:16;;;;;;;48.80;7.22;;;;;;;;;;5058594;28;20900;-85
2021/11/07 03:46:42;;;;;;;63.33;7.80;;;;;;;;;;5076202;28;20072;-85
2021/11/07 03:49:09;;;;;;;46.28;7.20;;;;;;;;;;5076188;28;20036;-84
2021/11/07 03:51:35;;;;;;;72.30;10.52;;;;;;;;;;5059297;28;20039;-85
2021/11/07 03:54:01;;;;;;;40.72;6.53;;;;;;;;;;5056947;28;20718;-84
2021/11/07 03:56:26;;;;;;;50.58;6.60;;;;;;;;;;5057504;28;20017;-84
2021/11/07 03:58:52;;;;;;;57.53;8.00;;;;;;;;;;5058127;28;20035;-85
2021/11/07 04:01:18;;;;;;;54.50;8.40;;;;;;;;;;5075313;28;20020;-85
2021/11/07 04:03:43;;;;;;;52.70;6.88;;;;;;;;;;5057463;28;20024;-85
2021/11/07 04:06:08;;;;;;;47.25;7.28;;;;;;;;;;5057861;28;20024;-85
2021/11/07 04:08:34;;;;;;;48.35;6.55;;;;;;;;;;5076064;28;20077;-86
2021/11/07 04:10:59;;;;;;;42.38;7.18;;;;;;;;;;5057989;28;20016;-85
2021/11/07 04:13:25;;;;;;;44.58;6.80;;;;;;;;;;5075982;28;20020;-85
2021/11/07 04:15:50;;;;;;;46.63;7.68;;;;;;;;;;5060335;28;20104;-85
2021/11/07 04:18:15;;;;;;;63.80;7.93;;;;;;;;;;5075849;28;20096;-85
2021/11/07 04:20:40;;;;;;;61.45;9.15;;;;;;;;;;5056794;28;20258;-85
2021/11/07 04:23:05;;;;;;;38.83;6.25;;;;;;;;;;5056822;28;20040;-85
2021/11/07 04:25:31;;;;;;;51.75;7.20;;;;;;;;;;5057325;28;20099;-85
2021/11/07 04:27:57;;;;;;;39.63;6.15;;;;;;;;;;5057182;28;20021;-85
2021/11/07 04:30:22;;;;;;;45.53;7.53;;;;;;;;;;5075190;28;20013;-85
2021/11/07 04:32:47;;;;;;;31.42;6.50;;;;;;;;;;5074394;28;20037;-85
2021/11/07 04:35:13;;;;;;;34.67;6.03;;;;;;;;;;5057200;28;20020;-85
2021/11/07 04:37:40;;;;;;;38.75;6.28;;;;;;;;;;5076047;28;20044;-85
2021/11/07 04:40:06;;;;;;;44.53;7.65;;;;;;;;;;5073950;28;20020;-85
2021/11/07 04:42:31;;;;;;;38.13;5.47;;;;;;;;;;5056414;28;20071;-85
2021/11/07 04:44:56;;;;;;;24.63;4.55;;;;;;;;;;5056820;28;20107;-85
2021/11/07 04:47:21;;;;;;;33.13;5.07;;;;;;;;;;5074817;28;20702;-85
2021/11/07 04:49:47;;;;;;;28.65;5.28;;;;;;;;;;5075392;28;20435;-85
2021/11/07 04:52:12;;;;;;;26.73;4.30;;;;;;;;;;5057426;28;20032;-85
2021/11/07 04:54:37;;;;;;;23.40;4.22;;;;;;;;;;5075473;28;20133;-85
2021/11/07 04:57:03;;;;;;;24.95;4.13;;;;;;;;;;5057709;28;20065;-85
2021/11/07 04:59:28;;;;;;;18.52;3.03;;;;;;;;;;5075352;28;20020;-85
2021/11/07 05:01:55;;;;;;;15.05;2.92;;;;;;;;;;5073745;28;20099;-85
2021/11/07 05:04:20;;;;;;;42.38;3.83;;;;;;;;;;5074320;28;20016;-85
2021/11/07 05:06:49;;;;;;;16.00;3.35;;;;;;;;;;5056339;28;20021;-85
2021/11/07 05:09:14;;;;;;;11.98;2.28;;;;;;;;;;5056590;28;20013;-85
2021/11/07 05:11:42;;;;;;;15.77;4.27;;;;;;;;;;5056886;28;20020;-85
2021/11/07 05:14:08;;;;;;;19.83;3.97;;;;;;;;;;5056978;28;20331;-85
2021/11/07 05:16:33;;;;;;;18.30;3.88;;;;;;;;;;5074960;28;20044;-84
2021/11/07 05:18:58;;;;;;;19.50;4.17;;;;;;;;;;5056495;28;20020;-85
2021/11/07 05:21:23;;;;;;;28.83;4.27;;;;;;;;;;5074728;28;20251;-85
2021/11/07 05:23:49;;;;;;;25.70;5.07;;;;;;;;;;5079695;28;20274;-85
2021/11/07 05:26:14;;;;;;;38.35;5.32;;;;;;;;;;5055399;28;20056;-85
2021/11/07 05:28:39;;;;;;;42.17;6.15;;;;;;;;;;5073741;28;20427;-85
2021/11/07 05:31:05;;;;;;;36.45;3.78;;;;;;;;;;5073951;28;20837;-85
2021/11/07 05:33:31;;;;;;;46.22;4.68;;;;;;;;;;5056051;28;20062;-85
2021/11/07 05:35:56;;;;;;;35.35;5.35;;;;;;;;;;5074734;28;20028;-84
2021/11/07 05:38:21;;;;;;;34.45;4.88;;;;;;;;;;5074806;28;20025;-85
2021/11/07 05:40:47;;;;;;;36.05;4.00;;;;;;;;;;5074577;28;20052;-85
2021/11/07 05:43:12;;;;;;;22.73;4.30;;;;;;;;;;5075018;28;20783;-84
2021/11/07 05:45:37;;;;;;;32.08;4.10;;;;;;;;;;5077986;28;20074;-85
2021/11/07 05:48:05;;;;;;;27.25;3.88;;;;;;;;;;5076995;28;20858;-85
2021/11/07 05:50:30;;;;;;;23.65;5.70;;;;;;;;;;5059583;28;20024;-85
2021/11/07 05:52:56;;;;;;;30.30;4.15;;;;;;;;;;5077935;28;20028;-85
2021/11/07 05:55:21;;;;;;;31.02;5.22;;;;;;;;;;5078493;28;20372;-85
2021/11/07 05:57:46;;;;;;;36.28;6.03;;;;;;;;;;5078752;28;20024;-85
2021/11/07 06:00:14;;;;;;;49.67;7.07;;;;;;;;;;5078365;28;20025;-85
2021/11/07 06:02:40;;;;;;;53.70;8.05;;;;;;;;;;5059942;28;20699;-84
2021/11/07 06:05:05;;;;;;;50.30;6.65;;;;;;;;;;5077696;28;20513;-85
2021/11/07 06:07:30;;;;;;;39.25;7.85;;;;;;;;;;5079676;28;20385;-85
2021/11/07 06:09:56;;;;;;;43.45;5.07;;;;;;;;;;5077062;28;20032;-85
2021/11/07 06:12:21;;;;;;;47.53;6.30;;;;;;;;;;5077449;28;20029;-84
2021/11/07 06:14:46;;;;;;;32.97;5.07;;;;;;;;;;5077388;28;20481;-85
2021/11/07 06:17:12;;;;;;;31.37;5.47;;;;;;;;;;5059672;28;20117;-85
2021/11/07 06:19:38;;;;;;;29.77;5.47;;;;;;;;;;5059506;28;20259;-84
2021/11/07 06:22:03;;;;;;;36.78;5.13;;;;;;;;;;5059962;28;20021;-85
2021/11/07 06:24:29;;;;;;;28.95;3.95;;;;;;;;;;5059796;28;20027;-85
2021/11/07 06:26:57;;;;;;;28.85;4.63;;;;;;;;;;5077927;28;20016;-85
2021/11/07 06:29:22;;;;;;;27.88;4.20;;;;;;;;;;5077727;28;20030;-85
2021/11/07 06:31:51;;;;;;;28.95;5.22;;;;;;;;;;5079087;28;20103;-84
2021/11/07 06:34:16;;;;;;;38.13;6.43;;;;;;;;;;5058435;28;20059;-85
2021/11/07 06:36:42;;;;;;;30.08;4.28;;;;;;;;;;5058475;28;20079;-85
2021/11/07 06:39:07;;;;;;;25.08;4.65;;;;;;;;;;5059383;28;20027;-85
2021/11/07 06:41:32;;;;;;;22.70;4.22;;;;;;;;;;5059000;28;20024;-85
2021/11/07 06:43:59;;;;;;;30.05;3.90;;;;;;;;;;5059379;28;20021;-85
2021/11/07 06:46:25;;;;;;;21.85;3.35;;;;;;;;;;5059669;28;20032;-85
2021/11/07 06:48:50;;;;;;;28.77;4.22;;;;;;;;;;5059685;28;20384;-85
2021/11/07 06:51:16;;;;;;;19.48;3.72;;;;;;;;;;5077533;28;20070;-85
2021/11/07 06:53:41;;;;;;;23.65;4.03;;;;;;;;;;5059454;28;20029;-85
2021/11/07 06:56:07;;;;;;;17.63;3.63;;;;;;;;;;5058763;28;20043;-85
2021/11/07 06:58:32;;;;;;;11.88;2.47;;;;;;;;;;5076324;28;20035;-85
2021/11/07 07:00:57;;;;;;;15.52;2.92;;;;;;;;;;5058574;28;20013;-85
2021/11/07 07:03:22;;;;;;;13.95;3.20;;;;;;;;;;5076661;28;20024;-84
2021/11/07 07:05:48;;;;;;;15.88;2.75;;;;;;;;;;5076536;28;20021;-85
2021/11/07 07:08:26;;;;;;;24.10;3.95;;;;;;;;;;5076857;28;20030;-85
2021/11/07 07:10:59;;;;;;;14.18;2.50;;;;;;;;;;5058728;28;20586;-85
2021/11/07 07:13:33;;;;;;;17.85;2.78;;;;;;;;;;5059207;28;20464;-85
2021/11/07 07:21:40;;;;;;;20.42;4.72;;;;;;;;;;5076309;28;20025;-85
2021/11/07 07:29:19;;;;;;;22.70;3.67;;;;;;;;;;5076783;28;20051;-85
2021/11/07 07:34:10;;;;;;;24.92;4.15;;;;;;;;;;5077521;28;20028;-85
2021/11/07 07:36:36;;;;;;;22.33;3.75;;;;;;;;;;5058392;28;20048;-84
2021/11/07 07:39:02;;;;;;;23.50;4.13;;;;;;;;;;5059093;28;20097;-85
2021/11/07 07:41:27;;;;;;;26.35;5.03;;;;;;;;;;5075823;28;20063;-84
2021/11/07 07:43:53;;;;;;;29.83;4.35;;;;;;;;;;5057787;28;20020;-85
2021/11/07 07:46:19;;;;;;;25.00;4.00;;;;;;;;;;5057770;28;20020;-84
2021/11/07 07:48:45;;;;;;;21.13;2.88;;;;;;;;;;5075622;28;20027;-85
2021/11/07 07:51:14;;;;;;;24.08;4.00;;;;;;;;;;5075466;28;20017;-85
2021/11/07 07:53:41;;;;;;;24.10;3.28;;;;;;;;;;5076274;28;20090;-85
2021/11/07 07:56:07;;;;;;;23.40;2.92;;;;;;;;;;5076538;28;20107;-84
2021/11/07 07:58:33;;;;;;;22.67;4.38;;;;;;;;;;5058401;28;20027;-85
2021/11/07 08:00:58;;;;;;;17.55;3.35;;;;;;;;;;5076382;28;20016;-85
2021/11/07 08:03:24;;;;;;;19.43;4.37;;;;;;;;;;5058659;28;20012;-85
2021/11/07 08:05:49;;;;;;;26.73;4.45;;;;;;;;;;5076547;28;20584;-85
2021/11/07 08:08:15;;;;;;;20.33;3.78;;;;;;;;;;5058172;28;20120;-85
2021/11/07 08:10:40;;;;;;;24.65;4.10;;;;;;;;;;5081283;28;20445;-85
2021/11/07 08:13:06;;;;;;;18.05;4.15;;;;;;;;;;5075684;28;20074;-85
2021/11/07 08:15:32;;;;;;;27.17;3.63;;;;;;;;;;5075020;28;20013;-85
2021/11/07 08:17:57;;;;;;;23.92;4.43;;;;;;;;;;5074730;28;20100;-85
2021/11/07 08:20:22;;;;;;;18.25;2.95;;;;;;;;;;5074869;28;20703;-85
2021/11/07 08:22:49;;;;;;;20.33;3.05;;;;;;;;;;5057242;28;20024;-85
2021/11/07 08:25:19;;;;;;;50.83;4.00;;;;;;;;;;5057158;28;20017;-85
2021/11/07 08:27:45;;;;;;;15.43;2.57;;;;;;;;;;5057667;28;20461;-85
2021/11/07 08:30:11;;;;;;;11.68;2.00;;;;;;;;;;5075356;28;20104;-85
2021/11/07 08:32:36;;;;;;;7.65;1.92;;;;;;;;;;5075142;28;20108;-84
2021/11/07 08:35:02;;;;;;;7.82;2.00;;;;;;;;;;5075552;28;20020;-85
2021/11/07 08:37:35;;;;;;;12.43;2.13;;;;;;;;;;5076115;28;20046;-85
2021/11/07 08:40:05;;;;;;;15.27;2.75;;;;;;;;;;5076612;28;20016;-84
2021/11/07 08:42:41;;;;;;;12.27;3.15;;;;;;;;;;5059029;28;20479;-84
2021/11/07 09:07:00;;;;;;;22.50;4.03;;;;;;;;;;5079080;28;20108;-84
2021/11/07 09:09:26;;;;;;;14.98;3.03;;;;;;;;;;5056314;28;20028;-85
2021/11/07 09:11:54;;;;;;;27.52;4.68;;;;;;;;;;5074743;28;20023;-85
2021/11/07 09:14:22;;;;;;;16.75;3.10;;;;;;;;;;5056548;28;20438;-85
2021/11/07 09:16:49;;;;;;;28.75;4.13;;;;;;;;;;5075028;28;20099;-85
2021/11/07 09:19:18;;;;;;;42.20;5.43;;;;;;;;;;5074269;28;20070;-85
2021/11/07 09:21:46;;;;;;;25.63;3.00;;;;;;;;;;5074801;28;20368;-84
2021/11/07 09:24:23;;;;;;;16.83;3.45;;;;;;;;;;5074882;28;20103;-85
2021/11/07 09:26:49;;;;;;;13.73;3.65;;;;;;;;;;5074526;28;20791;-85
2021/11/07 09:29:25;;;;;;;16.75;4.55;;;;;;;;;;5056740;28;20024;-85
2021/11/07 09:34:35;;;;;;;22.65;3.00;;;;;;;;;;5074468;28;20113;-85
2021/11/07 09:37:07;;;;;;;20.98;3.85;;;;;;;;;;5073716;28;20098;-85
2021/11/07 09:42:29;;;;;;;20.63;3.13;;;;;;;;;;5075232;28;20023;-85
2021/11/07 09:44:58;;;;;;;19.02;3.15;;;;;;;;;;5056486;28;20029;-84
2021/11/07 09:47:26;;;;;;;32.65;5.07;;;;;;;;;;5044317;28;20021;-84
2021/11/07 09:49:52;;;;;;;30.73;4.47;;;;;;;;;;5023100;28;20022;-84
2021/11/07 09:52:25;;;;;;;26.40;4.15;;;;;;;;;;5031011;28;20028;-84
2021/11/07 09:54:58;;;;;;;23.27;4.45;;;;;;;;;;5056782;28;20020;-84
2021/11/07 09:57:24;;;;;;;23.42;4.05;;;;;;;;;;5038082;28;20060;-84
2021/11/07 09:59:55;;;;;;;21.35;3.78;;;;;;;;;;5053856;28;20021;-84
2021/11/07 10:02:21;;;;;;;24.58;4.88;;;;;;;;;;5053938;28;20633;-84
2021/11/07 10:04:47;;;;;;;30.63;4.65;;;;;;;;;;5050908;28;20021;-84
2021/11/07 10:07:13;;;;;;;22.75;4.30;;;;;;;;;;5032955;28;20474;-85
2021/11/07 10:09:40;;;;;;;18.65;4.45;;;;;;;;;;5038001;28;20109;-84
2021/11/07 10:12:09;;;;;;;23.40;4.55;;;;;;;;;;5056121;28;20029;-84
2021/11/07 10:14:44;;;;;;;34.70;4.80;;;;;;;;;;5041463;28;20017;-84
2021/11/07 10:17:22;;;;;;;26.35;4.18;;;;;;;;;;5032072;28;20022;-84
2021/11/07 10:19:59;;;;;;;17.88;3.60;;;;;;;;;;5032150;28;20436;-85
2021/11/07 10:22:24;;;;;;;30.13;5.05;;;;;;;;;;5033426;28;20849;-85
2021/11/07 10:24:54;;;;;;;26.50;4.07;;;;;;;;;;5034458;28;20032;-85
2021/11/07 10:27:19;;;;;;;20.30;3.38;;;;;;;;;;5047821;28;20024;-84
2021/11/07 10:29:48;;;;;;;22.53;4.00;;;;;;;;;;5057049;28;20021;-85
2021/11/07 10:32:40;;;;;;;21.02;3.53;;;;;;;;;;5076012;28;20399;-85
2021/11/07 10:38:15;;;;;;;17.10;2.92;;;;;;;;;;5033305;28;20527;-84
2021/11/07 10:52:08;;;;;;;22.48;4.68;;;;;;;;;;4972930;28;20114;-84
2021/11/07 10:54:39;;;;;;;21.27;3.58;;;;;;;;;;5026175;28;20420;-85
2021/11/07 10:57:04;;;;;;;;;;;;;;;;;;5056318;28;20020;-84
2021/11/07 10:59:30;;;;;;;16.52;3.10;;;;;;;;;;5055939;28;19962;-84
2021/11/07 11:01:55;;;;;;;20.20;3.63;;;;;;;;;;5037533;28;20040;-84
2021/11/07 11:04:20;;;;;;;22.25;3.40;;;;;;;;;;5038427;28;20025;-85
2021/11/07 11:07:05;;;;;;;21.27;3.67;;;;;;;;;;5052795;28;20381;-85
2021/11/07 11:09:36;;;;;;;23.58;4.00;;;;;;;;;;5052802;28;20453;-84
2021/11/07 11:12:10;;;;;;;24.17;4.28;;;;;;;;;;5068108;28;20025;-84
2021/11/07 11:14:39;;;;;;;17.33;4.55;;;;;;;;;;5052530;28;20455;-84
2021/11/07 11:17:10;;;;;;;23.73;4.20;;;;;;;;;;5048477;28;20412;-84
2021/11/07 11:35:00;;;;;;;13.05;3.15;;;;;;;;;;5056627;28;20020;-84
2021/11/07 11:40:24;;;;;;;10.07;2.70;;;;;;;;;;5058463;28;20021;-85
2021/11/07 11:45:09;;;;;;;12.38;2.42;;;;;;;;;;5054567;28;20025;-84
2021/11/07 12:03:57;;;;;;;13.27;2.28;;;;;;;;;;5062195;28;20040;-84
2021/11/07 12:09:25;;;;;;;9.73;2.88;;;;;;;;;;5059276;28;20532;-85
2021/11/07 12:17:08;;;;;;;6.75;1.88;;;;;;;;;;5027300;23;20237;-84
2021/11/07 12:19:34;;;;;;;9.35;2.30;;;;;;;;;;4994079;28;20093;-85
2021/11/07 12:22:07;;;;;;;12.65;2.10;;;;;;;;;;4993294;28;20501;-85
2021/11/07 12:24:47;;;;;;;19.42;2.78;;;;;;;;;;4975608;28;20027;-85
2021/11/07 12:27:15;;;;;;;15.30;2.95;;;;;;;;;;5006443;28;20079;-85
2021/11/07 12:29:42;;;;;;;13.00;1.98;;;;;;;;;;4993194;28;20083;-85
2021/11/07 12:32:09;;;;;;;12.45;2.45;;;;;;;;;;4992931;28;20022;-85
2021/11/07 12:34:57;;;;;;;9.48;1.80;;;;;;;;;;4976509;28;20406;-85
2021/11/07 12:40:34;;;;;;;12.45;1.70;;;;;;;;;;5001736;28;20804;-84
2021/11/07 12:43:03;;;;;;;9.40;1.83;;;;;;;;;;5012476;28;20045;-85
2021/11/07 12:45:36;;;;;;;8.82;2.50;;;;;;;;;;5014481;28;20732;-84
2021/11/07 12:48:05;;;;;;;6.45;1.75;;;;;;;;;;4997463;28;20049;-85
2021/11/07 12:50:50;;;;;;;9.88;2.33;;;;;;;;;;5013371;28;20030;-84
2021/11/07 12:53:15;;;;;;;9.30;2.58;;;;;;;;;;4996256;28;20029;-84
2021/11/07 12:55:40;;;;;;;11.77;2.67;;;;;;;;;;5014423;28;20028;-84
2021/11/07 12:58:06;;;;;;;9.70;2.00;;;;;;;;;;5014842;28;20376;-84
2021/11/07 13:00:32;;;;;;;13.93;2.78;;;;;;;;;;4997117;28;20025;-84
2021/11/07 13:03:04;;;;;;;41.88;4.13;;;;;;;;;;5013522;28;20018;-84
2021/11/07 13:05:37;;;;;;;14.48;2.42;;;;;;;;;;5015326;28;20018;-84
2021/11/07 13:08:12;;;;;;;12.40;3.63;;;;;;;;;;5014284;28;20022;-84
2021/11/07 13:13:10;;;;;;;11.55;2.53;;;;;;;;;;5013089;28;20833;-85
2021/11/07 13:29:29;;;;;;;43.40;5.38;;;;;;;;;;4989469;28;20057;-84
2021/11/07 13:34:21;;;;;;;22.75;3.90;;;;;;;;;;4994787;28;20026;-84
2021/11/07 13:36:50;;;;;;;25.85;3.88;;;;;;;;;;4976876;28;20023;-84
2021/11/07 13:39:26;;;;;;;15.88;3.85;;;;;;;;;;4992109;28;20030;-85
2021/11/07 13:42:09;;;;;;;21.40;4.38;;;;;;;;;;5005749;28;20021;-84
2021/11/07 13:44:49;;;;;;;21.08;3.72;;;;;;;;;;5032786;28;20465;-84
2021/11/07 13:47:15;;;;;;;29.08;4.20;;;;;;;;;;5033297;28;20105;-84
2021/11/07 13:49:47;;;;;;;26.73;4.40;;;;;;;;;;5015112;28;20505;-84
2021/11/07 13:52:12;;;;;;;21.15;3.83;;;;;;;;;;5032138;28;20437;-88
2021/11/07 13:54:38;;;;;;;30.38;4.68;;;;;;;;;;5014395;28;20021;-83
2021/11/07 13:57:04;;;;;;;32.63;5.00;;;;;;;;;;5016543;28;20068;-84
2021/11/07 13:59:30;;;;;;;23.23;3.28;;;;;;;;;;5015286;28;20044;-84
2021/11/07 14:01:55;;;;;;;36.15;5.05;;;;;;;;;;5033024;28;20017;-84
2021/11/07 14:04:21;;;;;;;32.75;4.22;;;;;;;;;;5014969;28;20099;-84
2021/11/07 14:06:47;;;;;;;39.55;5.20;;;;;;;;;;5037450;28;20033;-84
2021/11/07 14:09:12;;;;;;;34.83;4.63;;;;;;;;;;5037078;28;20089;-84
2021/11/07 14:11:39;;;;;;;36.58;5.20;;;;;;;;;;5037796;28;20091;-84
2021/11/07 14:14:09;;;;;;;27.05;4.70;;;;;;;;;;5018756;28;20436;-84
2021/11/07 14:16:36;;;;;;;33.80;5.57;;;;;;;;;;5041797;28;20057;-84
2021/11/07 14:19:07;;;;;;;27.25;4.88;;;;;;;;;;5018724;28;20057;-89
2021/11/07 14:21:37;;;;;;;33.95;5.22;;;;;;;;;;5037844;28;20025;-85
2021/11/07 14:24:14;;;;;;;39.70;5.68;;;;;;;;;;5030721;28;20681;-84
2021/11/07 14:26:47;;;;;;;53.05;5.40;;;;;;;;;;4999077;28;20121;-84
2021/11/07 14:34:21;;;;;;;32.00;4.43;;;;;;;;;;5038367;28;20381;-84
2021/11/07 14:42:05;;;;;;;43.15;6.25;;;;;;;;;;5038989;28;20025;-84
2021/11/07 14:44:40;;;;;;;36.92;5.50;;;;;;;;;;5040707;28;20021;-83
2021/11/07 14:47:11;;;;;;;38.15;4.72;;;;;;;;;;5017788;28;20112;-84
2021/11/07 14:49:53;;;;;;;49.95;6.85;;;;;;;;;;5017366;28;20021;-83
2021/11/07 14:55:06;;;;;;;42.72;5.13;;;;;;;;;;5037183;28;20056;-83
2021/11/07 14:58:01;;;;;;;36.03;5.30;;;;;;;;;;5019092;28;20029;-83
2021/11/07 15:00:27;;;;;;;45.63;5.78;;;;;;;;;;4999692;28;20033;-84
2021/11/07 15:02:58;;;;;;;45.55;7.60;;;;;;;;;;4979337;28;20030;-84
2021/11/07 15:08:11;;;;;;;44.30;8.25;;;;;;;;;;5026322;28;20113;-83
2021/11/07 15:10:47;;;;;;;38.50;6.07;;;;;;;;;;5037923;28;20028;-84
2021/11/07 15:13:28;;;;;;;38.65;6.47;;;;;;;;;;5037775;28;20072;-84
2021/11/07 15:16:09;;;;;;;;;;;;;;;;;;5006509;28;20033;-83
2021/11/07 15:18:56;;;;;;;49.92;7.20;;;;;;;;;;5034538;28;19916;-83
2021/11/07 15:24:19;;;;;;;46.90;7.07;;;;;;;;;;5005262;28;20017;-84
2021/11/07 15:26:48;;;;;;;50.88;6.78;;;;;;;;;;5017854;28;20047;-84
2021/11/07 15:29:16;;;;;;;41.42;6.70;;;;;;;;;;5019144;28;20020;-84
2021/11/07 15:31:42;;;;;;;53.08;6.63;;;;;;;;;;5018229;28;20029;-84
2021/11/07 15:34:10;;;;;;;40.58;7.03;;;;;;;;;;5037178;28;20817;-84
2021/11/07 15:36:40;;;;;;;47.25;7.47;;;;;;;;;;5020978;28;20047;-84
2021/11/07 15:39:11;;;;;;;48.95;8.38;;;;;;;;;;5016039;28;20022;-83
2021/11/07 15:41:37;;;;;;;49.87;8.83;;;;;;;;;;5035255;28;20397;-84
2021/11/07 15:44:04;;;;;;;39.85;6.50;;;;;;;;;;5017494;28;20707;-84
2021/11/07 15:46:31;;;;;;;56.63;8.38;;;;;;;;;;5018342;28;20363;-84
2021/11/07 15:48:57;;;;;;;52.63;7.53;;;;;;;;;;5035959;28;20092;-83
2021/11/07 16:13:49;;;;;;;37.33;5.75;;;;;;;;;;5035127;28;20045;-84
2021/11/07 16:19:01;;;;;;;43.20;6.53;;;;;;;;;;5040259;28;20032;-84
2021/11/07 16:21:29;;;;;;;41.45;6.13;;;;;;;;;;5032462;28;20140;-83
2021/11/07 16:24:02;;;;;;;37.03;6.28;;;;;;;;;;5034312;28;20433;-84
2021/11/07 16:26:27;;;;;;;39.55;7.28;;;;;;;;;;5033706;28;20034;-84
2021/11/07 16:28:53;;;;;;;36.63;6.68;;;;;;;;;;5033279;28;20765;-84
2021/11/07 16:31:24;;;;;;;49.53;8.80;;;;;;;;;;5034061;28;20030;-84
2021/11/07 16:33:55;;;;;;;48.63;7.30;;;;;;;;;;5033810;28;20137;-84
2021/11/07 16:36:23;;;;;;;41.85;8.23;;;;;;;;;;5034256;28;20386;-84
2021/11/07 16:38:57;;;;;;;67.80;8.68;;;;;;;;;;5035139;28;20397;-84
2021/11/07 16:43:52;;;;;;;64.53;7.78;;;;;;;;;;5034099;28;20052;-85
2021/11/07 16:46:21;;;;;;;43.30;7.18;;;;;;;;;;5033839;28;20548;-85
2021/11/07 16:48:48;;;;;;;51.72;7.57;;;;;;;;;;5031672;28;20053;-85
2021/11/07 16:51:23;;;;;;;59.15;10.05;;;;;;;;;;5032023;28;20104;-85
2021/11/07 16:54:18;;;;;;;50.33;8.70;;;;;;;;;;5032352;28;20091;-84
2021/11/07 16:56:35;;;;;;;55.13;8.68;;;;;;;;;;5033324;28;20561;-84
2021/11/07 16:59:13;;;;;;;49.30;6.72;;;;;;;;;;5033331;28;20017;-84
2021/11/07 17:01:56;;;;;;;58.05;8.38;;;;;;;;;;5031180;28;20033;-84
2021/11/07 17:04:27;;;;;;;50.10;5.72;;;;;;;;;;5034180;28;20541;-84
2021/11/07 17:09:39;;;;;;;49.90;6.35;;;;;;;;;;5048739;28;20018;-85
2021/11/07 17:12:11;;;;;;;50.78;6.78;;;;;;;;;;5045595;28;20026;-87
2021/11/07 17:14:37;;;;;;;27.25;4.70;;;;;;;;;;5041262;28;20036;-84
2021/11/07 17:17:06;;;;;;;35.00;4.90;;;;;;;;;;5031129;28;20060;-84
2021/11/07 17:19:44;;;;;;;31.05;5.38;;;;;;;;;;5031165;28;20022;-85
2021/11/07 17:22:30;;;;;;;36.20;4.78;;;;;;;;;;5032998;28;20370;-84
2021/11/07 17:25:00;;;;;;;31.20;5.82;;;;;;;;;;5029821;28;20048;-84
2021/11/07 17:27:58;;;;;;;37.65;6.15;;;;;;;;;;5024183;28;20105;-85
2021/11/07 17:30:16;;;;;;;59.63;7.53;;;;;;;;;;5013089;28;20025;-84
2021/11/07 17:32:50;;;;;;;42.90;7.10;;;;;;;;;;5013559;28;20029;-85
2021/11/07 17:37:46;;;;;;;77.40;9.18;;;;;;;;;;5031737;28;20021;-85
2021/11/07 17:56:30;;;;;;;46.05;5.95;;;;;;;;;;5018490;28;20531;-85
2021/11/07 17:58:55;;;;;;;39.00;6.25;;;;;;;;;;5014794;28;20022;-85
2021/11/07 18:01:21;;;;;;;39.93;6.10;;;;;;;;;;5017826;28;20014;-85
2021/11/07 18:03:51;;;;;;;44.97;6.80;;;;;;;;;;5019467;28;20256;-84
2021/11/07 18:06:17;;;;;;;41.25;5.55;;;;;;;;;;5037761;28;20029;-85
2021/11/07 18:08:44;;;;;;;57.22;8.32;;;;;;;;;;5037884;28;20022;-84